Time;durP1;ratioP1;P1;durP2;ratioP2;P2;SDS_P1;SDS_P2;PMS_P1;PMS_P2;Temp;Humidity;BMP_temperature;BMP_pressure;BME280_temperature;BME280_humidity;BME280_pressure;Samples;Min_cycle;Max_cycle;Signal;HPM_P1;HPM_P2
2023/08/28 00:00:10;;;;;;;5.35;3.25;;;;;;;26.61;55.05;98683.84;4461508;32;33664;-77
2023/08/28 00:02:38;;;;;;;7.50;3.05;;;;;;;26.50;55.29;98684.84;4470816;32;34214;-77
2023/08/28 00:05:08;;;;;;;5.87;3.55;;;;;;;26.51;55.33;98689.19;4473701;32;33874;-77
2023/08/28 00:07:37;;;;;;;7.50;2.85;;;;;;;26.67;54.93;98687.75;4478478;32;34989;-78
2023/08/28 00:10:07;;;;;;;6.37;3.50;;;;;;;26.51;55.85;98685.69;4464335;32;33587;-78
2023/08/28 00:12:40;;;;;;;4.75;2.70;;;;;;;26.12;56.84;98681.34;4470691;32;34076;-77
2023/08/28 00:15:10;;;;;;;4.78;2.72;;;;;;;26.16;57.27;98679.22;4466120;32;33049;-79
2023/08/28 00:17:39;;;;;;;4.62;2.78;;;;;;;26.13;57.74;98690.16;4466631;32;32348;-77
2023/08/28 00:20:09;;;;;;;5.97;2.85;;;;;;;26.22;57.57;98693.78;4459783;32;35036;-78
2023/08/28 00:22:38;;;;;;;4.40;2.53;;;;;;;26.27;57.70;98692.34;4464760;32;33797;-77
2023/08/28 00:25:10;;;;;;;5.30;2.90;;;;;;;26.07;58.69;98685.38;4464141;32;34118;-77
2023/08/28 00:27:39;;;;;;;3.10;2.10;;;;;;;26.27;58.13;98681.72;4468073;32;34165;-78
2023/08/28 00:30:09;;;;;;;4.45;2.40;;;;;;;26.19;58.60;98670.94;4465103;32;34036;-78
2023/08/28 00:32:39;;;;;;;3.95;2.47;;;;;;;25.91;59.71;98675.37;4460223;32;33525;-78
2023/08/28 00:35:09;;;;;;;4.28;2.10;;;;;;;26.16;59.04;98679.22;4459659;32;34407;-78
2023/08/28 00:37:38;;;;;;;3.00;1.70;;;;;;;25.90;59.78;98671.00;4459966;32;33350;-78
2023/08/28 00:40:13;;;;;;;4.15;2.40;;;;;;;26.18;58.94;98671.94;4473147;32;33350;-77
2023/08/28 00:42:42;;;;;;;3.97;2.10;;;;;;;25.98;59.60;98670.31;4475595;32;34540;-77
2023/08/28 00:45:10;;;;;;;3.60;1.90;;;;;;;26.03;59.66;98663.59;4471606;32;34452;-77
2023/08/28 00:47:40;;;;;;;2.35;1.42;;;;;;;26.25;58.79;98662.41;4475353;32;33383;-78
2023/08/28 00:50:11;;;;;;;3.08;2.17;;;;;;;25.94;59.87;98661.78;4468342;32;33884;-78
2023/08/28 00:52:40;;;;;;;3.85;1.90;;;;;;;26.03;59.54;98657.44;4463777;32;32852;-78
2023/08/28 00:55:10;;;;;;;4.80;1.95;;;;;;;26.04;59.45;98662.59;4459575;32;33511;-77
2023/08/28 00:57:39;;;;;;;4.12;1.62;;;;;;;26.12;59.33;98667.19;4459824;32;33306;-77
2023/08/28 01:00:10;;;;;;;2.87;1.50;;;;;;;26.19;59.28;98670.94;4469614;32;34753;-78
2023/08/28 01:02:42;;;;;;;;;;;;;;;26.10;59.48;98669.19;4480638;32;34129;-78
2023/08/28 01:05:12;;;;;;;5.60;1.90;;;;;;;25.93;59.77;98662.78;4474381;32;35008;-77
2023/08/28 01:07:45;;;;;;;2.80;1.52;;;;;;;25.95;60.03;98656.34;4474634;32;33250;-78
2023/08/28 01:10:21;;;;;;;2.92;1.35;;;;;;;26.05;59.67;98661.63;4474560;32;33833;-77
2023/08/28 01:12:54;;;;;;;3.28;1.87;;;;;;;25.77;60.42;98661.50;4475166;32;33598;-78
2023/08/28 01:15:24;;;;;;;3.60;2.03;;;;;;;25.68;60.70;98651.72;4480736;32;33927;-77
2023/08/28 01:17:55;;;;;;;2.67;1.33;;;;;;;25.68;60.74;98650.88;4471491;32;33693;-78
2023/08/28 01:20:25;;;;;;;2.15;1.60;;;;;;;25.63;60.73;98648.66;4474800;32;33296;-77
2023/08/28 01:23:16;;;;;;;3.62;1.87;;;;;;;25.54;61.04;98644.22;4475136;32;34699;-78
2023/08/28 01:25:48;;;;;;;2.37;1.67;;;;;;;25.60;60.94;98646.28;4461268;32;33007;-78
2023/08/28 01:28:17;;;;;;;3.15;1.58;;;;;;;25.56;61.13;98644.87;4472660;32;33878;-78
2023/08/28 01:30:48;;;;;;;2.35;1.50;;;;;;;25.29;61.97;98640.28;4476854;32;32943;-78
2023/08/28 01:33:18;;;;;;;;;;;;;;;25.26;62.15;98646.72;4477804;32;34773;-78
2023/08/28 01:35:51;;;;;;;2.42;1.15;;;;;;;25.48;61.26;98637.63;4477074;32;33897;-77
2023/08/28 01:38:25;;;;;;;3.20;1.58;;;;;;;25.42;61.54;98640.00;4482369;32;34664;-77
2023/08/28 01:40:59;;;;;;;3.30;1.70;;;;;;;25.39;61.74;98643.78;4481908;32;33626;-78
2023/08/28 01:43:30;;;;;;;3.62;1.45;;;;;;;25.45;61.34;98639.75;4477141;32;34027;-78
2023/08/28 01:45:59;;;;;;;4.25;1.92;;;;;;;25.33;61.90;98644.34;4478321;32;34378;-78
2023/08/28 01:48:34;;;;;;;3.50;1.52;;;;;;;25.46;61.47;98644.06;4477074;32;34283;-77
2023/08/28 01:51:03;;;;;;;3.12;1.62;;;;;;;25.29;62.02;98645.59;4482330;32;34575;-78
2023/08/28 01:53:32;;;;;;;3.60;1.87;;;;;;;25.29;62.02;98642.94;4477301;32;34462;-77
2023/08/28 01:56:22;;;;;;;2.75;1.58;;;;;;;25.13;62.70;98649.63;4476783;32;33753;-77
2023/08/28 01:58:54;;;;;;;2.60;1.60;;;;;;;25.41;61.69;98654.25;4476347;32;33874;-78
2023/08/28 02:01:23;;;;;;;3.55;1.83;;;;;;;25.24;62.20;98650.50;4476562;32;33409;-78
2023/08/28 02:03:53;;;;;;;2.80;1.70;;;;;;;24.91;63.31;98649.84;4482690;32;33677;-78
2023/08/28 02:06:22;;;;;;;3.45;2.10;;;;;;;24.80;63.67;98657.94;4476585;32;33953;-77
2023/08/28 02:08:50;;;;;;;2.87;1.75;;;;;;;24.91;63.35;98645.41;4476826;32;32992;-78
2023/08/28 02:11:21;;;;;;;4.30;1.70;;;;;;;24.79;63.82;98657.09;4476581;32;34452;-77
2023/08/28 02:13:51;;;;;;;4.00;2.17;;;;;;;24.78;64.23;98651.91;4476154;32;34771;-78
2023/08/28 02:16:20;;;;;;;;;;;;;;;24.92;63.26;98655.03;4467785;32;33086;-77
2023/08/28 02:18:49;;;;;;;3.42;1.77;;;;;;;24.86;63.22;98658.25;4476287;32;33701;-77
2023/08/28 02:21:18;;;;;;;3.25;1.50;;;;;;;24.80;63.69;98657.94;4475829;32;33917;-78
2023/08/28 02:23:47;;;;;;;1.92;1.30;;;;;;;24.55;64.18;98649.50;4476402;32;33671;-78
2023/08/28 02:26:16;;;;;;;2.70;1.35;;;;;;;24.64;63.99;98653.97;4481934;32;34443;-77
2023/08/28 02:28:46;;;;;;;3.37;1.50;;;;;;;24.80;63.34;98657.94;4473462;32;33035;-77
2023/08/28 02:31:15;;;;;;;4.20;1.90;;;;;;;24.68;63.52;98660.69;4458666;32;32614;-78
2023/08/28 02:33:44;;;;;;;3.75;1.73;;;;;;;24.48;64.33;98665.09;4464778;32;33542;-76
2023/08/28 02:36:13;;;;;;;4.15;1.92;;;;;;;24.54;63.96;98662.88;4471548;32;33632;-78
2023/08/28 02:38:42;;;;;;;3.10;1.65;;;;;;;24.71;63.50;98670.19;4480455;32;34345;-78
2023/08/28 02:41:11;;;;;;;4.10;1.95;;;;;;;24.52;64.03;98673.59;4470302;32;31896;-78
2023/08/28 02:43:40;;;;;;;5.90;1.95;;;;;;;24.54;63.62;98661.06;4460862;32;33731;-78
2023/08/28 02:46:10;;;;;;;2.47;1.40;;;;;;;24.63;63.62;98665.56;4473681;32;34737;-78
2023/08/28 02:48:39;;;;;;;3.87;1.35;;;;;;;24.47;64.05;98654.59;4476974;32;32474;-77
2023/08/28 02:51:09;;;;;;;2.95;1.52;;;;;;;24.53;63.69;98653.25;4464996;32;34327;-78
2023/08/28 02:53:37;;;;;;;4.18;1.73;;;;;;;24.23;64.48;98653.06;4470286;32;33866;-76
2023/08/28 02:56:26;;;;;;;2.42;1.20;;;;;;;24.07;64.92;98652.72;4460777;32;33497;-76
2023/08/28 02:58:56;;;;;;;4.18;1.62;;;;;;;24.40;63.89;98656.09;4460940;32;33908;-77
2023/08/28 03:01:26;;;;;;;2.47;1.45;;;;;;;24.21;64.52;98652.41;4466234;32;33627;-77
2023/08/28 03:03:55;;;;;;;2.03;1.25;;;;;;;24.21;64.32;98662.13;4471053;32;34153;-77
2023/08/28 03:06:24;;;;;;;1.90;1.23;;;;;;;24.03;64.88;98652.16;4475209;32;33554;-77
2023/08/28 03:08:53;;;;;;;2.35;1.35;;;;;;;23.96;65.11;98650.97;4476284;32;33348;-77
2023/08/28 03:11:22;;;;;;;3.92;1.90;;;;;;;23.87;65.67;98651.75;4482000;32;34286;-77
2023/08/28 03:13:52;;;;;;;3.33;1.50;;;;;;;23.77;65.69;98657.00;4476448;32;33759;-77
2023/08/28 03:16:20;;;;;;;4.10;2.10;;;;;;;23.87;65.65;98664.16;4476178;32;34307;-77
2023/08/28 03:18:51;;;;;;;3.40;1.90;;;;;;;23.93;65.23;98668.97;4476239;32;33292;-78
2023/08/28 03:21:20;;;;;;;4.25;1.90;;;;;;;23.91;65.36;98668.25;4476336;32;33263;-77
2023/08/28 03:23:49;;;;;;;2.28;1.23;;;;;;;23.62;66.57;98671.50;4471488;32;33671;-76
2023/08/28 03:26:18;;;;;;;2.05;1.25;;;;;;;23.75;66.24;98674.00;4476575;32;34445;-78
2023/08/28 03:28:47;;;;;;;3.72;2.15;;;;;;;23.78;65.76;98669.28;4473189;32;33958;-78
2023/08/28 03:31:16;;;;;;;4.00;1.80;;;;;;;23.75;65.80;98671.34;4462756;32;34586;-78
2023/08/28 03:33:45;;;;;;;3.12;2.03;;;;;;;23.65;66.10;98671.25;4465798;32;33988;-78
2023/08/28 03:36:15;;;;;;;3.03;1.73;;;;;;;23.76;65.87;98663.28;4460628;32;33783;-78
2023/08/28 03:38:45;;;;;;;2.75;1.42;;;;;;;23.79;65.81;98663.00;4459839;32;33125;-78
2023/08/28 03:41:14;;;;;;;3.58;1.58;;;;;;;23.77;65.48;98664.09;4469901;32;33506;-78
2023/08/28 03:43:42;;;;;;;2.85;1.35;;;;;;;23.71;65.93;98661.97;4475770;32;33746;-78
2023/08/28 03:46:11;;;;;;;3.42;1.48;;;;;;;23.68;65.90;98681.59;4470014;32;35005;-77
2023/08/28 03:48:42;;;;;;;3.33;1.70;;;;;;;23.81;65.29;98684.06;4462213;32;33407;-78
2023/08/28 03:51:12;;;;;;;3.05;1.42;;;;;;;23.49;66.51;98692.88;4462524;32;34500;-78
2023/08/28 03:53:43;;;;;;;3.55;1.67;;;;;;;23.22;67.51;98688.03;4458687;32;33646;-77
2023/08/28 03:56:12;;;;;;;3.55;1.65;;;;;;;23.17;68.05;98683.13;4465783;32;33776;-78
2023/08/28 03:58:42;;;;;;;4.00;1.37;;;;;;;23.09;68.23;98684.69;4462136;32;33378;-77
2023/08/28 04:01:11;;;;;;;4.15;1.92;;;;;;;23.18;67.70;98690.06;4458877;32;33857;-77
2023/08/28 04:03:40;;;;;;;2.65;1.58;;;;;;;23.20;67.55;98689.97;4465717;32;34740;-78
2023/08/28 04:06:09;;;;;;;3.97;1.92;;;;;;;22.94;68.80;98692.88;4463452;32;34208;-77
2023/08/28 04:08:38;;;;;;;5.05;1.98;;;;;;;23.01;68.48;98687.97;4460501;32;33962;-77
2023/08/28 04:11:08;;;;;;;3.42;1.58;;;;;;;22.84;69.05;98681.34;4461489;32;34401;-78
2023/08/28 04:13:38;;;;;;;1.73;1.17;;;;;;;23.15;67.97;98689.50;4460052;32;34640;-77
2023/08/28 04:16:07;;;;;;;2.03;1.20;;;;;;;23.33;67.37;98690.63;4465346;32;33838;-77
2023/08/28 04:18:36;;;;;;;2.85;1.77;;;;;;;23.26;67.51;98689.44;4467844;32;34135;-77
2023/08/28 04:21:05;;;;;;;3.28;1.50;;;;;;;23.46;66.81;98687.81;4458709;32;33409;-77
2023/08/28 04:23:34;;;;;;;2.08;1.35;;;;;;;23.19;67.91;98689.09;4470544;32;33569;-77
2023/08/28 04:26:03;;;;;;;3.47;1.58;;;;;;;23.41;66.75;98687.34;4467754;32;34457;-78
2023/08/28 04:28:33;;;;;;;2.30;1.62;;;;;;;23.11;68.03;98685.41;4479013;32;33829;-77
2023/08/28 04:31:02;;;;;;;3.67;1.90;;;;;;;23.05;68.29;98683.25;4458964;32;32994;-77
2023/08/28 04:33:31;;;;;;;2.28;1.20;;;;;;;22.99;68.58;98687.25;4459485;32;32990;-77
2023/08/28 04:36:00;;;;;;;3.50;1.83;;;;;;;22.99;68.62;98682.78;4463436;32;33771;-78
2023/08/28 04:38:30;;;;;;;2.05;1.35;;;;;;;23.10;68.50;98679.28;4465121;32;33891;-77
2023/08/28 04:40:59;;;;;;;3.12;1.52;;;;;;;23.07;68.97;98671.56;4467272;32;33682;-77
2023/08/28 04:43:28;;;;;;;4.05;2.12;;;;;;;23.40;67.35;98667.16;4461491;32;33851;-77
2023/08/28 04:45:58;;;;;;;2.55;1.50;;;;;;;23.40;67.57;98664.50;4472765;32;34436;-78
2023/08/28 04:48:27;;;;;;;5.93;1.93;;;;;;;23.50;67.15;98668.06;4467823;32;35340;-78
2023/08/28 04:50:56;;;;;;;2.65;1.33;;;;;;;23.48;66.98;98655.91;4480816;32;34612;-77
2023/08/28 04:53:25;;;;;;;5.35;1.40;;;;;;;23.29;67.92;98657.44;4475191;32;33852;-78
2023/08/28 04:55:55;;;;;;;3.05;1.75;;;;;;;23.45;67.28;98653.53;4460225;32;33213;-77
2023/08/28 04:58:24;;;;;;;4.30;1.58;;;;;;;23.55;66.73;98654.44;4460392;32;33876;-77
2023/08/28 05:00:58;;;;;;;2.20;1.25;;;;;;;23.61;66.43;98653.94;4465709;32;33471;-78
2023/08/28 05:03:27;;;;;;;3.17;1.45;;;;;;;23.66;66.35;98650.91;4467386;32;33959;-77
2023/08/28 05:05:56;;;;;;;2.50;1.40;;;;;;;23.55;66.66;98643.84;4463248;32;34217;-78
2023/08/28 05:08:25;;;;;;;2.65;1.27;;;;;;;23.68;66.38;98643.66;4477441;32;33170;-77
2023/08/28 05:10:54;;;;;;;2.95;1.17;;;;;;;23.81;65.91;98634.59;4477101;32;33960;-77
2023/08/28 05:13:22;;;;;;;1.85;1.17;;;;;;;23.70;66.08;98631.97;4482840;32;33804;-77
2023/08/28 05:15:55;;;;;;;2.75;1.30;;;;;;;23.93;65.40;98621.28;4477609;32;34371;-78
2023/08/28 05:18:26;;;;;;;2.87;1.23;;;;;;;24.09;64.97;98619.00;4477562;32;33139;-78
2023/08/28 05:20:56;;;;;;;2.33;1.50;;;;;;;24.11;64.99;98622.34;4476623;32;33796;-77
2023/08/28 05:23:25;;;;;;;2.10;1.25;;;;;;;24.10;65.01;98636.56;4479358;32;33658;-78
2023/08/28 05:25:55;;;;;;;1.50;1.00;;;;;;;24.17;65.54;98643.03;4482908;32;34346;-77
2023/08/28 05:28:24;;;;;;;2.97;1.25;;;;;;;24.44;64.57;98642.44;4476896;32;33979;-77
2023/08/28 05:30:53;;;;;;;2.62;1.35;;;;;;;24.78;63.17;98639.50;4477001;32;33686;-78
2023/08/28 05:33:22;;;;;;;2.25;1.35;;;;;;;25.20;61.06;98635.81;4476755;32;34769;-78
2023/08/28 05:35:52;;;;;;;2.00;1.05;;;;;;;25.31;60.77;98641.81;4482547;32;33516;-78
2023/08/28 05:38:21;;;;;;;2.05;1.05;;;;;;;25.50;59.59;98646.28;4466418;32;32862;-77
2023/08/28 05:40:50;;;;;;;2.08;1.27;;;;;;;25.32;60.18;98648.81;4461194;32;34492;-78
2023/08/28 05:43:19;;;;;;;3.03;1.23;;;;;;;25.76;59.21;98648.38;4461310;32;33713;-77
2023/08/28 05:45:48;;;;;;;2.58;1.58;;;;;;;25.93;58.27;98652.97;4477679;32;33752;-77
2023/08/28 05:48:17;;;;;;;3.22;1.45;;;;;;;25.71;58.91;98640.00;4464640;32;33274;-78
2023/08/28 05:50:49;;;;;;;1.90;1.20;;;;;;;25.54;59.74;98628.28;4467932;32;36687;-78
2023/08/28 05:53:19;;;;;;;2.45;1.17;;;;;;;25.39;60.29;98617.22;4469795;32;34149;-77
2023/08/28 05:55:48;;;;;;;2.28;1.20;;;;;;;25.30;61.10;98624.22;4466623;32;33826;-77
2023/08/28 05:58:19;;;;;;;1.85;1.05;;;;;;;25.29;61.12;98627.84;4472245;32;32745;-78
2023/08/28 06:00:48;;;;;;;3.15;1.75;;;;;;;25.62;59.83;98628.41;4460791;32;34410;-77
2023/08/28 06:03:17;;;;;;;1.95;1.23;;;;;;;25.39;61.42;98624.34;4461394;32;33529;-78
2023/08/28 06:05:46;;;;;;;3.90;1.50;;;;;;;25.52;60.74;98623.09;4463104;32;33564;-77
2023/08/28 06:08:16;;;;;;;2.55;1.35;;;;;;;25.72;60.07;98620.41;4482208;31;33270;-79
2023/08/28 06:10:47;;;;;;;2.97;1.42;;;;;;;25.91;59.91;98623.06;4464441;32;33717;-78
2023/08/28 06:13:15;;;;;;;2.80;1.30;;;;;;;25.98;59.89;98622.50;4461409;32;34006;-77
2023/08/28 06:15:44;;;;;;;3.22;1.55;;;;;;;26.26;58.71;98610.88;4460942;32;33596;-78
2023/08/28 06:18:13;;;;;;;2.40;1.42;;;;;;;26.47;58.29;98609.84;4473889;32;33098;-78
2023/08/28 06:20:42;;;;;;;4.30;1.15;;;;;;;26.40;58.25;98614.91;4481807;32;34227;-76
2023/08/28 06:23:11;;;;;;;2.17;1.30;;;;;;;26.45;57.71;98607.31;4473649;31;33404;-78
2023/08/28 06:25:40;;;;;;;3.42;1.60;;;;;;;26.49;57.81;98607.88;4468642;32;34578;-78
2023/08/28 06:28:10;;;;;;;1.77;0.90;;;;;;;26.54;57.75;98621.59;4467474;32;34018;-77
2023/08/28 06:30:39;;;;;;;3.65;2.00;;;;;;;26.49;58.10;98618.50;4473997;32;35507;-78
2023/08/28 06:33:08;;;;;;;2.35;1.58;;;;;;;26.50;57.99;98618.34;4466249;32;34734;-78
2023/08/28 06:35:37;;;;;;;2.30;1.23;;;;;;;26.52;58.01;98619.03;4463033;32;34918;-78
2023/08/28 06:38:06;;;;;;;2.65;1.45;;;;;;;26.62;57.86;98621.66;4460832;32;33763;-78
2023/08/28 06:40:35;;;;;;;4.53;1.33;;;;;;;26.58;57.79;98620.31;4469872;32;33442;-78
2023/08/28 06:43:04;;;;;;;2.20;1.50;;;;;;;26.52;58.09;98610.22;4475915;32;33739;-77
2023/08/28 06:45:35;;;;;;;5.12;1.42;;;;;;;26.75;57.89;98600.06;4474573;32;34687;-78
2023/08/28 06:48:05;;;;;;;1.85;1.10;;;;;;;26.64;57.92;98598.41;4461738;32;34158;-79
2023/08/28 06:50:34;;;;;;;2.60;1.35;;;;;;;26.97;56.80;98591.63;4460482;32;33573;-77
2023/08/28 06:53:03;;;;;;;3.60;1.42;;;;;;;26.49;58.60;98594.56;4472765;32;34837;-78
2023/08/28 06:55:33;;;;;;;2.28;1.45;;;;;;;26.91;56.89;98588.72;4469835;32;34280;-77
2023/08/28 06:58:03;;;;;;;3.17;1.60;;;;;;;26.98;56.54;98584.47;4465718;32;33349;-78
2023/08/28 07:00:32;;;;;;;4.70;2.67;;;;;;;26.52;58.17;98579.12;4462808;32;34342;-78
2023/08/28 07:03:02;;;;;;;3.58;1.67;;;;;;;26.97;57.36;98575.66;4473388;32;33716;-78
2023/08/28 07:05:32;;;;;;;5.55;2.08;;;;;;;27.06;57.67;98571.22;4464106;32;34543;-77
2023/08/28 07:08:01;;;;;;;4.07;2.08;;;;;;;26.92;58.03;98564.62;4470405;32;32951;-78
2023/08/28 07:10:30;;;;;;;3.00;1.62;;;;;;;27.41;57.04;98564.25;4475270;32;34172;-77
2023/08/28 07:12:59;;;;;;;7.40;2.70;;;;;;;27.61;56.58;98563.03;4459485;32;34724;-79
2023/08/28 07:15:59;;;;;;;5.20;2.33;;;;;;;27.39;56.71;98559.06;4464927;32;33618;-78
2023/08/28 07:18:30;;;;;;;4.22;2.37;;;;;;;26.71;56.51;98548.94;4471749;31;33144;-79
2023/08/28 07:20:59;;;;;;;6.30;3.33;;;;;;;27.39;55.10;98553.72;4466729;32;34127;-78
2023/08/28 07:23:28;;;;;;;4.75;2.33;;;;;;;27.47;55.28;98552.94;4469372;32;34656;-79
2023/08/28 07:25:58;;;;;;;5.03;3.08;;;;;;;27.44;55.38;98555.94;4467283;32;34023;-78
2023/08/28 07:28:28;;;;;;;4.70;2.40;;;;;;;27.20;55.42;98548.59;4473567;32;33026;-78
2023/08/28 07:30:59;;;;;;;4.87;2.53;;;;;;;27.53;55.54;98552.34;4459861;32;33777;-79
2023/08/28 07:33:30;;;;;;;5.28;2.53;;;;;;;27.89;53.97;98557.59;4460381;32;34304;-79
2023/08/28 07:35:59;;;;;;;4.18;1.90;;;;;;;27.43;55.18;98562.25;4460861;32;34394;-79
2023/08/28 07:38:28;;;;;;;4.70;2.25;;;;;;;27.68;54.70;98560.59;4465521;32;33689;-78
2023/08/28 07:40:57;;;;;;;5.75;2.42;;;;;;;28.13;53.20;98564.88;4464741;32;34559;-79
2023/08/28 07:43:25;;;;;;;5.37;2.80;;;;;;;27.93;53.75;98572.25;4460464;32;34562;-77
2023/08/28 07:45:54;;;;;;;11.55;3.08;;;;;;;28.05;53.90;98578.16;4465935;32;33664;-78
2023/08/28 07:48:24;;;;;;;5.57;2.78;;;;;;;27.91;54.93;98579.59;4460236;32;34265;-77
2023/08/28 07:50:54;;;;;;;5.43;2.35;;;;;;;28.29;53.60;98583.63;4467838;32;34204;-77
2023/08/28 07:53:23;;;;;;;9.20;3.53;;;;;;;28.06;53.77;98579.84;4464389;32;35135;-77
2023/08/28 07:55:52;;;;;;;4.87;2.58;;;;;;;28.13;53.96;98586.19;4459361;32;33713;-78
2023/08/28 07:58:21;;;;;;;20.80;4.03;;;;;;;27.81;54.84;98573.47;4460062;32;32886;-79
2023/08/28 08:00:50;;;;;;;9.50;4.40;;;;;;;28.65;53.20;98579.91;4479758;32;33543;-78
2023/08/28 08:03:21;;;;;;;6.75;3.22;;;;;;;28.00;54.52;98575.13;4462005;32;34054;-78
2023/08/28 08:05:52;;;;;;;13.23;3.65;;;;;;;28.43;53.02;98571.47;4460550;32;33608;-78
2023/08/28 08:08:22;;;;;;;5.03;2.60;;;;;;;28.46;53.39;98567.69;4471304;32;33222;-78
2023/08/28 08:10:51;;;;;;;4.32;2.28;;;;;;;28.61;52.89;98571.41;4475865;32;34074;-79
2023/08/28 08:13:19;;;;;;;7.45;3.58;;;;;;;28.63;52.88;98572.09;4465539;32;33994;-78
2023/08/28 08:15:48;;;;;;;6.00;2.45;;;;;;;28.75;52.42;98561.91;4459700;32;33634;-78
2023/08/28 08:18:17;;;;;;;4.18;2.17;;;;;;;28.92;53.10;98565.44;4463828;32;33724;-78
2023/08/28 08:20:46;;;;;;;4.25;1.80;;;;;;;28.80;52.69;98550.75;4466463;32;33632;-78
2023/08/28 08:23:15;;;;;;;4.82;2.40;;;;;;;29.02;52.60;98551.94;4467065;32;33798;-78
2023/08/28 08:25:45;;;;;;;4.80;2.33;;;;;;;28.91;53.01;98548.59;4459883;32;33788;-79
2023/08/28 08:28:15;;;;;;;5.55;2.65;;;;;;;29.07;52.73;98541.66;4465719;32;32921;-78
2023/08/28 08:30:44;;;;;;;6.68;3.30;;;;;;;29.07;52.38;98529.13;4459190;32;33281;-78
2023/08/28 08:33:12;;;;;;;5.12;2.90;;;;;;;29.29;52.07;98526.78;4460513;32;34508;-79
2023/08/28 08:35:42;;;;;;;5.18;2.55;;;;;;;29.16;52.52;98519.25;4465321;32;34278;-79
2023/08/28 08:38:10;;;;;;;5.82;2.92;;;;;;;29.34;51.79;98527.12;4460147;32;33429;-78
2023/08/28 08:40:41;;;;;;;4.55;2.45;;;;;;;29.50;51.63;98528.91;4459187;32;33401;-78
2023/08/28 08:43:12;;;;;;;5.00;2.40;;;;;;;29.42;52.12;98527.09;4457182;32;33841;-79
2023/08/28 08:45:42;;;;;;;4.68;2.37;;;;;;;29.76;50.99;98524.19;4468518;32;33073;-77
2023/08/28 08:48:17;;;;;;;5.87;2.83;;;;;;;29.72;51.56;98530.06;4465739;32;33361;-79
2023/08/28 08:50:48;;;;;;;5.50;2.78;;;;;;;29.48;51.06;98533.59;4466208;32;34697;-78
2023/08/28 08:53:24;;;;;;;5.65;2.95;;;;;;;29.85;49.68;98527.69;4464960;32;33115;-79
2023/08/28 08:55:57;;;;;;;6.05;3.10;;;;;;;30.05;49.46;98532.66;4469707;32;34038;-78
2023/08/28 08:58:27;;;;;;;5.25;2.70;;;;;;;29.67;50.49;98530.59;4471771;32;34064;-79
2023/08/28 09:00:56;;;;;;;5.47;3.12;;;;;;;29.94;50.23;98531.19;4466833;32;32956;-77
2023/08/28 09:03:25;;;;;;;4.28;2.40;;;;;;;30.01;49.56;98526.81;4465038;32;33998;-79
2023/08/28 09:05:54;;;;;;;8.55;3.10;;;;;;;30.16;48.96;98524.25;4461030;32;33482;-78
2023/08/28 09:08:24;;;;;;;5.50;2.90;;;;;;;29.88;49.71;98529.19;4468316;32;33061;-78
2023/08/28 09:10:58;;;;;;;8.40;3.17;;;;;;;30.38;47.71;98530.69;4459520;32;33922;-79
2023/08/28 09:13:28;;;;;;;5.12;2.70;;;;;;;30.71;47.46;98527.81;4467609;32;33802;-77
2023/08/28 09:15:58;;;;;;;5.53;2.67;;;;;;;30.72;48.03;98532.16;4459379;32;34750;-78
2023/08/28 09:18:27;;;;;;;5.30;2.83;;;;;;;31.04;46.20;98534.62;4458735;32;33236;-78
2023/08/28 09:21:07;;;;;;;6.30;3.12;;;;;;;31.40;45.61;98527.81;4464448;32;33735;-78
2023/08/28 09:23:42;;;;;;;5.78;3.10;;;;;;;31.23;46.19;98532.47;4466384;32;34368;-78
2023/08/28 09:26:13;;;;;;;6.05;2.90;;;;;;;31.57;45.42;98528.50;4462780;32;33411;-79
2023/08/28 09:28:58;;;;;;;4.93;2.55;;;;;;;31.23;45.71;98522.56;4459519;32;34083;-77
2023/08/28 09:31:30;;;;;;;8.02;3.15;;;;;;;31.43;45.37;98514.03;4464139;32;33587;-78
2023/08/28 09:34:00;;;;;;;6.32;3.12;;;;;;;31.32;45.64;98511.81;4471406;32;33880;-79
2023/08/28 09:36:38;;;;;;;4.72;2.65;;;;;;;31.63;45.51;98500.94;4466520;32;33706;-77
2023/08/28 09:39:13;;;;;;;5.05;2.87;;;;;;;31.65;45.00;98501.59;4467248;32;33774;-78
2023/08/28 09:41:43;;;;;;;5.75;3.05;;;;;;;31.45;45.95;98493.25;4464042;32;33477;-78
2023/08/28 09:44:19;;;;;;;5.00;2.45;;;;;;;31.95;44.21;98491.72;4467683;32;33765;-78
2023/08/28 09:46:49;;;;;;;6.93;4.15;;;;;;;31.74;44.81;98489.75;4471661;32;34333;-78
2023/08/28 09:49:19;;;;;;;6.87;2.90;;;;;;;32.00;44.38;98488.47;4464269;32;33018;-78
2023/08/28 09:51:50;;;;;;;6.00;3.15;;;;;;;32.27;43.96;98485.09;4462459;32;34780;-78
2023/08/28 09:54:19;;;;;;;5.37;2.72;;;;;;;32.50;44.12;98481.47;4465566;32;33600;-79
2023/08/28 09:56:48;;;;;;;4.85;2.45;;;;;;;32.65;42.53;98476.84;4463241;32;34608;-78
2023/08/28 09:59:19;;;;;;;7.25;2.90;;;;;;;32.56;42.49;98469.13;4470798;32;33269;-77
2023/08/28 10:01:48;;;;;;;4.32;2.35;;;;;;;32.55;43.20;98462.06;4467841;32;34671;-78
2023/08/28 10:04:20;;;;;;;6.10;2.77;;;;;;;32.73;42.62;98471.34;4464128;32;34795;-79
2023/08/28 10:06:50;;;;;;;4.37;2.40;;;;;;;32.99;42.27;98459.19;4468450;31;33999;-79
2023/08/28 10:09:22;;;;;;;3.72;1.87;;;;;;;32.76;42.35;98453.19;4480314;31;33249;-78
2023/08/28 10:11:51;;;;;;;5.25;2.10;;;;;;;32.78;41.10;98451.97;4464882;31;34394;-79
2023/08/28 10:14:23;;;;;;;4.45;2.00;;;;;;;32.87;41.84;98447.31;4472014;32;33771;-78
2023/08/28 10:16:57;;;;;;;3.65;1.77;;;;;;;33.04;40.70;98448.72;4467798;32;34306;-79
2023/08/28 10:19:29;;;;;;;3.83;2.00;;;;;;;32.95;39.71;98445.28;4468376;32;33421;-78
2023/08/28 10:21:57;;;;;;;4.07;2.00;;;;;;;33.10;39.79;98439.03;4466457;32;34328;-79
2023/08/28 10:24:27;;;;;;;4.87;2.47;;;;;;;33.27;39.96;98437.72;4461367;32;34639;-79
2023/08/28 10:26:57;;;;;;;5.57;2.40;;;;;;;33.09;39.75;98437.38;4460881;32;33648;-78
2023/08/28 10:29:27;;;;;;;;;;;;;;;33.39;40.07;98439.84;4472049;32;32634;-79
2023/08/28 10:31:57;;;;;;;6.57;3.03;;;;;;;33.66;41.91;98435.47;4477713;31;33859;-78
2023/08/28 10:34:26;;;;;;;5.37;2.60;;;;;;;33.74;41.37;98424.56;4472920;32;34041;-78
2023/08/28 10:36:58;;;;;;;6.70;2.10;;;;;;;33.74;41.84;98422.69;4476454;32;33655;-79
2023/08/28 10:39:43;;;;;;;3.80;2.08;;;;;;;33.90;41.67;98424.22;4475500;32;33272;-78
2023/08/28 10:42:19;;;;;;;6.93;3.22;;;;;;;33.73;39.75;98423.75;4474151;32;34296;-78
2023/08/28 10:44:49;;;;;;;2.85;1.65;;;;;;;33.93;41.33;98421.13;4467319;32;33767;-77
2023/08/28 10:47:20;;;;;;;6.03;2.33;;;;;;;33.97;39.96;98419.69;4457421;32;33092;-78
2023/08/28 10:49:48;;;;;;;5.45;2.03;;;;;;;33.92;40.52;98419.44;4460741;32;33970;-78
2023/08/28 10:52:19;;;;;;;4.25;2.10;;;;;;;34.10;39.58;98407.34;4460237;32;33855;-78
2023/08/28 10:54:48;;;;;;;5.28;2.15;;;;;;;34.15;41.38;98418.31;4463317;32;33585;-78
2023/08/28 10:57:24;;;;;;;3.95;2.22;;;;;;;34.15;38.04;98412.94;4466859;32;33838;-78
2023/08/28 10:59:55;;;;;;;4.78;1.98;;;;;;;34.09;37.27;98409.19;4457256;32;33245;-79
2023/08/28 11:02:24;;;;;;;3.25;1.67;;;;;;;34.30;37.50;98399.31;4462800;32;33448;-77
2023/08/28 11:04:53;;;;;;;3.72;1.83;;;;;;;34.36;38.02;98404.69;4462170;32;34596;-78
2023/08/28 11:07:43;;;;;;;3.20;1.77;;;;;;;34.51;39.03;98409.91;4478275;32;35951;-79
2023/08/28 11:10:16;;;;;;;4.40;2.28;;;;;;;34.51;38.35;98411.75;4473856;32;33683;-78
2023/08/28 11:12:54;;;;;;;4.95;2.40;;;;;;;34.34;37.28;98404.06;4467744;32;34063;-78
2023/08/28 11:15:28;;;;;;;4.35;2.17;;;;;;;34.82;38.01;98397.72;4465998;32;34086;-78
2023/08/28 11:18:27;;;;;;;6.00;2.30;;;;;;;34.92;36.26;98400.00;4461187;32;34493;-79
2023/08/28 11:20:57;;;;;;;5.03;2.22;;;;;;;35.03;36.74;98393.94;4462276;32;33436;-78
2023/08/28 11:23:27;;;;;;;;;;;;;;;34.80;36.96;98392.53;4469725;32;33751;-79
2023/08/28 11:25:55;;;;;;;4.07;2.10;;;;;;;34.97;36.67;98395.63;4463905;32;35096;-78
2023/08/28 11:28:26;;;;;;;5.82;2.42;;;;;;;35.08;35.42;98390.63;4458823;32;33432;-79
2023/08/28 11:31:00;;;;;;;4.07;2.30;;;;;;;34.92;36.08;98391.91;4463877;32;32872;-78
2023/08/28 11:33:36;;;;;;;3.75;2.10;;;;;;;35.10;35.20;98388.59;4468620;32;33900;-79
2023/08/28 11:36:05;;;;;;;5.65;2.33;;;;;;;35.14;36.11;98389.84;4468709;32;33656;-79
2023/08/28 11:38:34;;;;;;;3.53;1.60;;;;;;;35.19;35.83;98388.16;4460487;32;34170;-78
2023/08/28 11:41:07;;;;;;;5.03;1.98;;;;;;;35.38;35.31;98380.22;4461945;32;34000;-79
2023/08/28 11:43:37;;;;;;;3.37;1.70;;;;;;;35.44;35.72;98377.50;4465986;32;34446;-79
2023/08/28 11:46:07;;;;;;;4.30;1.77;;;;;;;35.40;34.08;98368.19;4467821;32;33985;-79
2023/08/28 11:48:37;;;;;;;7.18;2.33;;;;;;;35.62;34.64;98368.75;4473295;32;34884;-79